Big Bear Station Historical Data
Daily Summary for August 12, 2017 Units:  English    Metric   Both
« Previous Day
Next Day »
Daily Weekly Monthly Yearly Custom
  High: Low: Average:
Temperature: 84.6 °F 53.4 °F 67.1 °F
Dew Point: 55.4 °F 34.9 °F 46.2 °F
Humidity: 89 % 24 % 53 %
Wind Speed: 10.9 mph 0.0 mph 1.6 mph
Wind Gust: -999.0 mph - -
Wind:- - SSW
Pressure: 30.28 in 30.23 in -
Precipitation: 0.00 in    
Historical Graphs
 
 
Tabular Data for August 12, 2017
Time Temperature Dew Point Pressure Wind Wind Speed Wind Gust Humidity Rainfall Rate (Hourly)
00:00 57.6 °F 48.6 °F 30.25 in Calm   -999.0 mph 72 % 0 in
00:15 57.4 °F 49.5 °F 30.25 in South 1.7 mph -999.0 mph 75 % 0 in
00:30 57.2 °F 49.3 °F 30.25 in Calm   -999.0 mph 75 % 0 in
00:45 56.8 °F 49.7 °F 30.25 in Calm   -999.0 mph 77 % 0 in
01:00 56.5 °F 49.7 °F 30.25 in Calm   -999.0 mph 78 % 0 in
01:16 56.5 °F 49.7 °F 30.25 in Calm   -999.0 mph 78 % 0 in
01:31 56.1 °F 49.3 °F 30.25 in Calm   -999.0 mph 78 % 0 in
01:46 55.9 °F 49.1 °F 30.24 in Calm   -999.0 mph 78 % 0 in
02:01 55.9 °F 49.8 °F 30.24 in Calm   -999.0 mph 80 % 0 in
02:16 55.8 °F 50.1 °F 30.24 in Calm   -999.0 mph 81 % 0 in
02:32 55.8 °F 50.1 °F 30.24 in Calm   -999.0 mph 81 % 0 in
02:47 55.2 °F 50.1 °F 30.25 in Calm   -999.0 mph 83 % 0 in
03:02 55.4 °F 50.6 °F 30.25 in Calm   -999.0 mph 84 % 0 in
03:17 55.0 °F 50.3 °F 30.25 in Calm   -999.0 mph 84 % 0 in
03:33 54.9 °F 50.2 °F 30.25 in Calm   -999.0 mph 84 % 0 in
03:48 54.9 °F 50.5 °F 30.25 in Calm   -999.0 mph 85 % 0 in
04:04 54.7 °F 50.3 °F 30.24 in Calm   -999.0 mph 85 % 0 in
04:19 54.3 °F 49.9 °F 30.24 in Calm   -999.0 mph 85 % 0 in
04:34 54.1 °F 49.4 °F 30.24 in Calm   -999.0 mph 84 % 0 in
04:50 53.8 °F 49.7 °F 30.24 in Calm   -999.0 mph 86 % 0 in
05:05 54.1 °F 50.0 °F 30.25 in Calm   -999.0 mph 86 % 0 in
05:20 53.8 °F 50.3 °F 30.24 in Calm   -999.0 mph 88 % 0 in
05:35 54.1 °F 50.3 °F 30.24 in Calm   -999.0 mph 87 % 0 in
05:51 53.6 °F 49.8 °F 30.24 in Calm   -999.0 mph 87 % 0 in
06:06 53.6 °F 49.8 °F 30.24 in Calm   -999.0 mph 87 % 0 in
06:21 53.4 °F 49.9 °F 30.25 in Calm   -999.0 mph 88 % 0 in
06:36 53.4 °F 49.6 °F 30.25 in Calm   -999.0 mph 87 % 0 in
06:51 53.4 °F 49.6 °F 30.25 in Calm   -999.0 mph 87 % 0 in
07:07 53.6 °F 49.8 °F 30.26 in Calm   -999.0 mph 87 % 0 in
07:22 53.8 °F 50.3 °F 30.26 in Calm   -999.0 mph 88 % 0 in
07:37 54.9 °F 51.4 °F 30.26 in Calm   -999.0 mph 88 % 0 in
07:52 55.2 °F 52.0 °F 30.26 in Calm   -999.0 mph 89 % 0 in
08:07 56.7 °F 53.2 °F 30.26 in Calm   -999.0 mph 88 % 0 in
08:23 58.1 °F 53.9 °F 30.26 in Calm   -999.0 mph 86 % 0 in
08:38 60.6 °F 55.4 °F 30.26 in Calm   -999.0 mph 83 % 0 in
08:53 63.5 °F 53.9 °F 30.26 in WSW 1.7 mph -999.0 mph 71 % 0 in
09:08 66.4 °F 51.6 °F 30.26 in NNW 2.2 mph -999.0 mph 59 % 0 in
09:23 69.4 °F 52.5 °F 30.26 in Calm   -999.0 mph 55 % 0 in
09:39 70.7 °F 50.6 °F 30.26 in South 2.2 mph -999.0 mph 49 % 0 in
09:54 71.6 °F 50.3 °F 30.27 in South 2.2 mph -999.0 mph 47 % 0 in
10:09 72.9 °F 52.6 °F 30.27 in NW 2.7 mph -999.0 mph 49 % 0 in
10:25 73.8 °F 50.5 °F 30.27 in Calm   -999.0 mph 44 % 0 in
10:55 76.6 °F 49.8 °F 30.27 in SSW 3.7 mph -999.0 mph 39 % 0 in
11:11 77.9 °F 49.5 °F 30.28 in SSW 2.7 mph -999.0 mph 37 % 0 in
11:26 79.0 °F 51.9 °F 30.28 in West 2.7 mph -999.0 mph 39 % 0 in
11:41 79.7 °F 50.4 °F 30.28 in WNW 4.2 mph -999.0 mph 36 % 0 in
11:56 80.6 °F 48.8 °F 30.28 in ENE 3.7 mph -999.0 mph 33 % 0 in
12:11 81.1 °F 47.6 °F 30.28 in NNW 3.2 mph -999.0 mph 31 % 0 in
12:27 82.2 °F 47.7 °F 30.28 in SSE 2.2 mph -999.0 mph 30 % 0 in
12:42 80.8 °F 45.6 °F 30.28 in SSW 3.7 mph -999.0 mph 29 % 0 in
12:57 83.7 °F 46.2 °F 30.27 in SE 4.7 mph -999.0 mph 27 % 0 in
13:12 84.4 °F 47.7 °F 30.27 in West 2.2 mph -999.0 mph 28 % 0 in
13:27 82.9 °F 45.5 °F 30.27 in SSW 3.2 mph -999.0 mph 27 % 0 in
13:43 84.4 °F 46.8 °F 30.27 in NE 2.2 mph -999.0 mph 27 % 0 in
13:58 84.6 °F 45.9 °F 30.26 in West 4.7 mph -999.0 mph 26 % 0 in
14:13 83.7 °F 46.2 °F 30.26 in NE 5.8 mph -999.0 mph 27 % 0 in
14:28 84.4 °F 45.8 °F 30.26 in SSE 5.3 mph -999.0 mph 26 % 0 in
14:44 82.9 °F 44.5 °F 30.26 in NNE 2.7 mph -999.0 mph 26 % 0 in
14:59 82.8 °F 44.4 °F 30.26 in NNW 10.9 mph -999.0 mph 26 % 0 in
15:14 81.5 °F 43.3 °F 30.25 in NW 3.7 mph -999.0 mph 26 % 0 in
15:29 82.8 °F 44.4 °F 30.26 in NW 3.2 mph -999.0 mph 26 % 0 in
15:45 81.3 °F 42.1 °F 30.25 in East 1.7 mph -999.0 mph 25 % 0 in
16:00 82.0 °F 42.7 °F 30.25 in WNW 3.7 mph -999.0 mph 25 % 0 in
16:16 81.0 °F 43.9 °F 30.25 in NNW 2.7 mph -999.0 mph 27 % 0 in
16:31 80.2 °F 42.2 °F 30.25 in ESE 2.7 mph -999.0 mph 26 % 0 in
16:46 80.8 °F 41.7 °F 30.25 in SW 3.2 mph -999.0 mph 25 % 0 in
17:01 82.8 °F 42.3 °F 30.25 in NW 5.3 mph -999.0 mph 24 % 0 in
17:17 82.9 °F 42.4 °F 30.25 in NNW 4.2 mph -999.0 mph 24 % 0 in
17:32 81.3 °F 41.1 °F 30.24 in South 3.2 mph -999.0 mph 24 % 0 in
17:47 80.2 °F 41.2 °F 30.23 in NE 2.7 mph -999.0 mph 25 % 0 in
18:02 79.9 °F 42.0 °F 30.23 in NNW 2.2 mph -999.0 mph 26 % 0 in
18:17 81.7 °F 41.4 °F 30.23 in SSW 4.7 mph -999.0 mph 24 % 0 in
18:33 81.3 °F 43.1 °F 30.24 in Calm   -999.0 mph 26 % 0 in
18:48 76.3 °F 43.4 °F 30.24 in NNW 2.2 mph -999.0 mph 31 % 0 in
19:03 72.9 °F 45.8 °F 30.24 in NW 2.7 mph -999.0 mph 38 % 0 in
19:19 70.5 °F 43.7 °F 30.24 in Calm   -999.0 mph 38 % 0 in
19:34 68.9 °F 43.6 °F 30.24 in Calm   -999.0 mph 40 % 0 in
19:49 67.3 °F 41.5 °F 30.24 in Calm   -999.0 mph 39 % 0 in
20:04 66.0 °F 37.6 °F 30.24 in Calm   -999.0 mph 35 % 0 in
20:19 65.3 °F 37.7 °F 30.24 in Calm   -999.0 mph 36 % 0 in
20:35 64.6 °F 35.6 °F 30.24 in SSE 1.1 mph -999.0 mph 34 % 0 in
20:50 63.9 °F 35.7 °F 30.25 in Calm   -999.0 mph 35 % 0 in
21:05 63.3 °F 37.3 °F 30.25 in SSE 2.2 mph -999.0 mph 38 % 0 in
21:20 63.0 °F 34.9 °F 30.25 in South 1.7 mph -999.0 mph 35 % 0 in
21:35 62.4 °F 36.5 °F 30.25 in SE 1.1 mph -999.0 mph 38 % 0 in
21:51 61.7 °F 37.1 °F 30.25 in SSE 2.7 mph -999.0 mph 40 % 0 in
22:06 61.3 °F 38.0 °F 30.25 in ESE 1.7 mph -999.0 mph 42 % 0 in
22:21 61.5 °F 37.6 °F 30.25 in SE 2.2 mph -999.0 mph 41 % 0 in
22:36 61.3 °F 38.0 °F 30.26 in South 2.2 mph -999.0 mph 42 % 0 in
22:51 61.0 °F 38.9 °F 30.26 in SSE 2.2 mph -999.0 mph 44 % 0 in
23:07 60.4 °F 39.0 °F 30.26 in SSE 2.2 mph -999.0 mph 45 % 0 in
23:22 59.5 °F 39.3 °F 30.26 in ESE 3.2 mph -999.0 mph 47 % 0 in
23:37 59.7 °F 38.9 °F 30.26 in Calm   -999.0 mph 46 % 0 in
23:52 60.3 °F 39.4 °F 30.26 in South 3.2 mph -999.0 mph 46 % 0 in
Big Bear CA Weather
Compliments of Weather Underground - 1.5 mb